createdAt,value
2018-03-06T00:00:39.555Z,31.33
2018-03-06T00:01:42.803Z,29.30
2018-03-06T00:02:45.358Z,30.10
2018-03-06T00:03:47.967Z,31.15
2018-03-06T00:04:50.449Z,30.95
2018-03-06T00:05:53.059Z,32.22
2018-03-06T00:06:55.545Z,31.02
2018-03-06T00:07:58.054Z,33.17
2018-03-06T00:09:01.323Z,31.90
2018-03-06T00:10:03.889Z,32.92
2018-03-06T00:11:06.432Z,30.83
2018-03-06T00:12:08.999Z,32.53
2018-03-06T00:13:11.473Z,30.45
2018-03-06T00:14:14.751Z,32.13
2018-03-06T00:15:18.051Z,31.92
2018-03-06T00:16:20.587Z,32.03
2018-03-06T00:17:23.155Z,32.30
2018-03-06T00:18:25.706Z,32.70
2018-03-06T00:19:28.205Z,32.72
2018-03-06T00:20:30.707Z,33.10
2018-03-06T00:21:33.242Z,35.78
2018-03-06T00:22:36.481Z,34.17
2018-03-06T00:23:39.822Z,33.92
2018-03-06T00:24:42.241Z,34.90
2018-03-06T00:25:45.496Z,34.55
2018-03-06T00:26:48.764Z,35.97
2018-03-06T00:27:51.282Z,34.58
2018-03-06T00:28:54.707Z,36.53
2018-03-06T00:29:57.631Z,35.38
2018-03-06T00:31:00.182Z,34.60
2018-03-06T00:32:02.660Z,35.03
2018-03-06T00:33:05.134Z,34.40
2018-03-06T00:34:08.405Z,34.50
2018-03-06T00:35:10.871Z,33.20
2018-03-06T00:36:13.545Z,35.05
2018-03-06T00:37:16.124Z,33.67
2018-03-06T00:38:18.604Z,35.15
2018-03-06T00:39:21.077Z,36.25
2018-03-06T00:40:23.656Z,34.50
2018-03-06T00:41:26.327Z,33.65
2018-03-06T00:42:28.833Z,33.95
2018-03-06T00:43:31.339Z,33.78
2018-03-06T00:44:33.850Z,32.55
2018-03-06T00:45:36.372Z,34.03
2018-03-06T00:46:38.910Z,33.05
2018-03-06T00:47:41.472Z,32.55
2018-03-06T00:48:43.960Z,33.03
2018-03-06T00:49:46.486Z,32.35
2018-03-06T00:50:49.329Z,34.97
2018-03-06T00:51:51.834Z,34.38
2018-03-06T00:52:54.313Z,37.15
2018-03-06T00:53:57.759Z,33.53
2018-03-06T00:55:01.802Z,33.97
2018-03-06T00:56:04.274Z,32.85
2018-03-06T00:57:07.558Z,32.63
2018-03-06T00:58:10.072Z,31.87
2018-03-06T00:59:12.560Z,33.90
2018-03-06T01:00:15.051Z,32.28
2018-03-06T01:01:17.557Z,31.55
2018-03-06T01:02:20.119Z,33.13
2018-03-06T01:03:24.118Z,32.40
2018-03-06T01:04:26.582Z,34.40
2018-03-06T01:05:29.091Z,35.53
2018-03-06T01:06:31.612Z,32.42
2018-03-06T01:07:34.849Z,34.38
2018-03-06T01:08:37.325Z,34.00
2018-03-06T01:09:39.797Z,33.65
2018-03-06T01:10:42.261Z,35.63
2018-03-06T01:11:44.780Z,34.63
2018-03-06T01:12:47.265Z,34.55
2018-03-06T01:13:49.763Z,33.45
2018-03-06T01:14:53.033Z,33.33
2018-03-06T01:15:55.509Z,34.00
2018-03-06T01:16:58.008Z,33.65
2018-03-06T01:18:00.514Z,33.58
2018-03-06T01:19:02.995Z,33.20
2018-03-06T01:20:06.374Z,34.88
2018-03-06T01:21:08.884Z,34.20
2018-03-06T01:22:12.150Z,33.35
2018-03-06T01:23:14.638Z,35.58
2018-03-06T01:24:17.134Z,33.40
2018-03-06T01:25:19.724Z,34.05
2018-03-06T01:26:22.223Z,34.20
2018-03-06T01:27:25.459Z,31.15
2018-03-06T01:28:28.718Z,34.25
2018-03-06T01:29:32.114Z,33.35
2018-03-06T01:30:34.599Z,32.90
2018-03-06T01:31:37.768Z,34.60
2018-03-06T01:32:40.312Z,32.47
2018-03-06T01:33:42.797Z,32.90
2018-03-06T01:34:45.274Z,32.72
2018-03-06T01:35:49.265Z,32.92
2018-03-06T01:36:52.508Z,33.47
2018-03-06T01:37:55.766Z,34.72
2018-03-06T01:38:58.242Z,32.65
2018-03-06T01:40:00.735Z,33.28
2018-03-06T01:41:03.360Z,33.78
2018-03-06T01:42:05.936Z,34.08
2018-03-06T01:43:09.226Z,34.47
2018-03-06T01:44:11.697Z,35.72
2018-03-06T01:45:14.183Z,37.45
2018-03-06T01:46:17.281Z,35.83
2018-03-06T01:47:20.548Z,35.15
2018-03-06T01:48:23.069Z,33.72
2018-03-06T01:49:25.550Z,33.13
2018-03-06T01:50:29.573Z,32.20
2018-03-06T01:51:43.990Z,33.03
2018-03-06T01:52:46.538Z,33.78
2018-03-06T01:53:49.904Z,30.75
2018-03-06T01:54:53.183Z,33.75
2018-03-06T01:55:55.655Z,34.63
2018-03-06T01:56:58.946Z,34.30
2018-03-06T01:58:01.450Z,33.60
2018-03-06T01:59:04.740Z,32.88
2018-03-06T02:00:07.251Z,32.38
2018-03-06T02:01:11.303Z,34.25
2018-03-06T02:02:13.808Z,33.50
2018-03-06T02:03:17.067Z,33.67
2018-03-06T02:04:19.557Z,33.97
2018-03-06T02:05:22.922Z,34.83
2018-03-06T02:06:25.457Z,35.55
2018-03-06T02:07:28.071Z,33.80
2018-03-06T02:08:30.585Z,33.85
2018-03-06T02:09:33.821Z,32.75
2018-03-06T02:10:36.305Z,35.55
2018-03-06T02:11:38.804Z,35.55
2018-03-06T02:12:41.298Z,35.10
2018-03-06T02:13:44.576Z,33.75
2018-03-06T02:14:47.037Z,32.88
2018-03-06T02:15:49.515Z,34.97
2018-03-06T02:16:51.980Z,33.80
2018-03-06T02:17:54.491Z,35.20
2018-03-06T02:18:56.987Z,33.38
2018-03-06T02:19:59.461Z,35.00
2018-03-06T02:21:01.965Z,35.72
2018-03-06T02:22:04.456Z,34.45
2018-03-06T02:23:07.002Z,34.95
2018-03-06T02:24:09.481Z,34.75
2018-03-06T02:25:12.062Z,33.42
2018-03-06T02:26:15.321Z,36.67
2018-03-06T02:27:17.822Z,37.08
2018-03-06T02:28:20.378Z,33.88
2018-03-06T02:29:22.881Z,35.38
2018-03-06T02:30:25.400Z,38.40
2018-03-06T02:31:27.884Z,36.30
2018-03-06T02:32:30.447Z,33.53
2018-03-06T02:33:32.947Z,32.28
2018-03-06T02:34:36.194Z,34.67
2018-03-06T02:35:39.524Z,34.95
2018-03-06T02:36:42.758Z,35.78
2018-03-06T02:37:45.243Z,35.38
2018-03-06T02:38:48.911Z,35.20
2018-03-06T02:39:51.418Z,35.17
2018-03-06T02:40:53.914Z,35.17
2018-03-06T02:41:57.163Z,34.58
2018-03-06T02:43:00.516Z,34.80
2018-03-06T02:44:03.002Z,34.35
2018-03-06T02:45:05.482Z,36.70
2018-03-06T02:46:12.806Z,34.30
2018-03-06T02:47:15.309Z,35.35
2018-03-06T02:48:18.579Z,33.67
2018-03-06T02:49:21.430Z,36.75
2018-03-06T02:50:24.018Z,35.17
2018-03-06T02:51:27.306Z,35.78
2018-03-06T02:52:29.783Z,34.42
2018-03-06T02:53:33.178Z,36.55
2018-03-06T02:54:35.671Z,35.33
2018-03-06T02:55:38.199Z,34.85
2018-03-06T02:56:40.668Z,35.00
2018-03-06T02:57:43.145Z,35.17
2018-03-06T02:58:45.616Z,33.95
2018-03-06T02:59:48.168Z,34.70
2018-03-06T03:00:51.476Z,35.30
2018-03-06T03:01:53.981Z,33.40
2018-03-06T03:02:56.492Z,34.63
2018-03-06T03:03:59.011Z,36.40
2018-03-06T03:05:01.483Z,35.53
2018-03-06T03:06:04.001Z,35.42
2018-03-06T03:07:06.488Z,36.70
2018-03-06T03:08:08.979Z,34.85
2018-03-06T03:09:11.558Z,36.20
2018-03-06T03:10:14.037Z,34.92
2018-03-06T03:11:16.532Z,35.55
2018-03-06T03:12:19.009Z,34.10
2018-03-06T03:13:22.242Z,35.72
2018-03-06T03:14:25.486Z,35.22
2018-03-06T03:15:28.740Z,34.38
2018-03-06T03:16:32.031Z,37.65
2018-03-06T03:17:34.532Z,35.40
2018-03-06T03:18:37.058Z,35.00
2018-03-06T03:19:39.532Z,34.28
2018-03-06T03:20:42.032Z,35.80
2018-03-06T03:21:44.519Z,34.30
2018-03-06T03:22:47.013Z,34.08
2018-03-06T03:23:49.484Z,34.00
2018-03-06T03:24:51.999Z,34.58
2018-03-06T03:25:54.477Z,36.15
2018-03-06T03:26:58.473Z,36.53
2018-03-06T03:28:01.727Z,35.20
2018-03-06T03:29:04.220Z,34.08
2018-03-06T03:30:07.613Z,35.80
2018-03-06T03:31:10.090Z,35.13
2018-03-06T03:32:13.354Z,36.22
2018-03-06T03:33:15.843Z,35.75
2018-03-06T03:34:18.916Z,34.22
2018-03-06T03:35:21.413Z,34.60
2018-03-06T03:36:24.696Z,36.08
2018-03-06T03:37:27.180Z,35.75
2018-03-06T03:38:30.594Z,35.60
2018-03-06T03:39:33.068Z,35.40
2018-03-06T03:40:36.317Z,34.70
2018-03-06T03:41:38.810Z,34.85
2018-03-06T03:42:42.836Z,36.42
2018-03-06T03:43:45.333Z,34.60
2018-03-06T03:44:47.880Z,34.55
2018-03-06T03:45:50.401Z,34.95
2018-03-06T03:46:52.894Z,36.20
2018-03-06T03:47:55.371Z,35.35
2018-03-06T03:48:57.854Z,34.60
2018-03-06T03:50:01.116Z,37.67
2018-03-06T03:51:03.632Z,36.08
2018-03-06T03:52:06.141Z,34.95
2018-03-06T03:53:09.400Z,37.33
2018-03-06T03:54:11.953Z,36.42
2018-03-06T03:55:14.440Z,36.60
2018-03-06T03:56:16.950Z,34.75
2018-03-06T03:57:20.240Z,34.65
2018-03-06T03:58:22.733Z,36.70
2018-03-06T03:59:25.983Z,36.15
2018-03-06T04:00:28.661Z,35.33
2018-03-06T04:01:31.212Z,37.22
2018-03-06T04:02:34.495Z,34.90
2018-03-06T04:03:37.068Z,35.83
2018-03-06T04:04:39.571Z,37.50
2018-03-06T04:05:42.067Z,35.63
2018-03-06T04:06:44.591Z,36.47
2018-03-06T04:07:47.531Z,35.88
2018-03-06T04:08:50.156Z,36.75
2018-03-06T04:09:53.218Z,35.90
2018-03-06T04:10:55.732Z,34.42
2018-03-06T04:11:58.197Z,37.28
2018-03-06T04:13:00.715Z,38.10
2018-03-06T04:14:03.172Z,37.58
2018-03-06T04:15:06.431Z,36.60
2018-03-06T04:16:09.665Z,36.00
2018-03-06T04:17:12.229Z,37.63
2018-03-06T04:18:15.283Z,37.97
2018-03-06T04:19:17.817Z,38.55
2018-03-06T04:20:21.080Z,35.85
2018-03-06T04:21:23.633Z,37.00
2018-03-06T04:22:26.862Z,38.30
2018-03-06T04:23:30.097Z,34.97
2018-03-06T04:24:33.342Z,34.97
2018-03-06T04:25:36.627Z,36.80
2018-03-06T04:26:39.127Z,33.78
2018-03-06T04:27:42.393Z,35.63
2018-03-06T04:28:44.874Z,35.42
2018-03-06T04:29:48.167Z,37.42
2018-03-06T04:30:50.675Z,37.10
2018-03-06T04:31:53.818Z,37.75
2018-03-06T04:32:56.330Z,39.70
2018-03-06T04:33:58.858Z,34.67
2018-03-06T04:35:01.360Z,37.10
2018-03-06T04:36:04.632Z,36.25
2018-03-06T04:37:07.269Z,36.22
2018-03-06T04:38:09.767Z,36.97
2018-03-06T04:39:13.013Z,37.40
2018-03-06T04:40:16.284Z,34.85
2018-03-06T04:41:18.773Z,36.85
2018-03-06T04:42:22.041Z,36.28
2018-03-06T04:43:24.556Z,36.78
2018-03-06T04:44:27.065Z,37.67
2018-03-06T04:45:30.313Z,36.67
2018-03-06T04:46:32.859Z,37.38
2018-03-06T04:47:35.387Z,36.70
2018-03-06T04:48:37.869Z,37.05
2018-03-06T04:49:40.388Z,36.97
2018-03-06T04:50:44.386Z,37.22
2018-03-06T04:51:46.920Z,40.45
2018-03-06T04:52:49.420Z,36.58
2018-03-06T04:53:52.676Z,37.20
2018-03-06T04:54:56.141Z,35.90
2018-03-06T04:55:58.641Z,38.50
2018-03-06T04:57:01.909Z,34.92
2018-03-06T04:58:05.156Z,36.53
2018-03-06T04:59:07.653Z,37.13
2018-03-06T05:00:10.173Z,38.08
2018-03-06T05:01:13.445Z,37.25
2018-03-06T05:02:15.956Z,39.25
2018-03-06T05:03:19.199Z,39.35
2018-03-06T05:04:22.449Z,38.88
2018-03-06T05:05:24.964Z,39.38
2018-03-06T05:06:27.468Z,35.90
2018-03-06T05:07:29.959Z,38.40
2018-03-06T05:08:32.438Z,39.40
2018-03-06T05:09:34.922Z,38.47
2018-03-06T05:10:37.448Z,37.20
2018-03-06T05:11:39.951Z,37.15
2018-03-06T05:12:42.509Z,36.92
2018-03-06T05:13:44.988Z,37.42
2018-03-06T05:14:47.547Z,38.53
2018-03-06T05:15:50.767Z,38.45
2018-03-06T05:16:53.289Z,38.35
2018-03-06T05:17:55.780Z,36.97
2018-03-06T05:18:59.046Z,39.45
2018-03-06T05:20:01.537Z,39.35
2018-03-06T05:21:04.109Z,38.95
2018-03-06T05:22:06.622Z,37.40
2018-03-06T05:23:09.119Z,36.80
2018-03-06T05:24:13.121Z,37.97
2018-03-06T05:25:15.639Z,38.58
2018-03-06T05:26:18.112Z,37.15
2018-03-06T05:27:20.637Z,39.33
2018-03-06T05:28:23.121Z,37.90
2018-03-06T05:29:25.734Z,38.60
2018-03-06T05:30:28.230Z,42.25
2018-03-06T05:31:31.637Z,38.72
2018-03-06T05:32:34.142Z,40.47
2018-03-06T05:33:36.641Z,40.88
2018-03-06T05:34:39.884Z,40.25
2018-03-06T05:35:42.349Z,37.42
2018-03-06T05:36:44.815Z,38.20
2018-03-06T05:37:48.071Z,39.45
2018-03-06T05:38:51.358Z,38.15
2018-03-06T05:39:53.836Z,40.12
2018-03-06T05:40:57.103Z,39.60
2018-03-06T05:41:59.678Z,39.28
2018-03-06T05:43:02.224Z,37.53
2018-03-06T05:44:05.552Z,38.75
2018-03-06T05:45:08.882Z,39.25
2018-03-06T05:46:11.423Z,40.12
2018-03-06T05:47:13.992Z,39.08
2018-03-06T05:48:17.170Z,36.28
2018-03-06T05:49:19.699Z,38.72
2018-03-06T05:50:22.200Z,38.40
2018-03-06T05:51:24.695Z,39.00
2018-03-06T05:52:28.000Z,39.80
2018-03-06T05:53:31.392Z,37.65
2018-03-06T05:54:33.909Z,38.17
2018-03-06T05:55:37.238Z,39.33
2018-03-06T05:56:39.830Z,39.92
2018-03-06T05:57:42.394Z,40.22
2018-03-06T05:58:45.837Z,39.33
2018-03-06T05:59:48.491Z,38.35
2018-03-06T06:00:52.988Z,38.78
2018-03-06T06:01:55.880Z,37.58
2018-03-06T06:02:59.407Z,36.72
2018-03-06T06:04:02.039Z,36.95
2018-03-06T06:05:06.562Z,39.95
2018-03-06T06:06:09.810Z,37.30
2018-03-06T06:07:12.292Z,36.28
2018-03-06T06:08:15.631Z,36.53
2018-03-06T06:09:18.978Z,37.15
2018-03-06T06:10:21.455Z,37.50
2018-03-06T06:11:25.770Z,37.90
2018-03-06T06:12:29.031Z,38.78
2018-03-06T06:13:32.278Z,36.92
2018-03-06T06:14:34.839Z,38.33
2018-03-06T06:15:37.306Z,36.72
2018-03-06T06:16:40.839Z,39.33
2018-03-06T06:17:44.237Z,38.90
2018-03-06T06:18:46.724Z,36.17
2018-03-06T06:19:50.087Z,38.22
2018-03-06T06:20:53.359Z,38.58
2018-03-06T06:21:55.847Z,38.05
2018-03-06T06:22:59.102Z,35.72
2018-03-06T06:24:02.353Z,35.58
2018-03-06T06:25:05.625Z,36.95
2018-03-06T06:26:08.332Z,36.70
2018-03-06T06:27:10.815Z,38.00
2018-03-06T06:28:13.496Z,35.13
2018-03-06T06:29:16.007Z,36.50
2018-03-06T06:30:19.442Z,35.47
2018-03-06T06:31:22.668Z,36.85
2018-03-06T06:32:25.165Z,35.95
2018-03-06T06:33:27.632Z,39.55
2018-03-06T06:34:30.902Z,43.25
2018-03-06T06:35:33.471Z,35.88
2018-03-06T06:36:36.044Z,39.60
2018-03-06T06:37:38.545Z,37.25
2018-03-06T06:38:41.788Z,37.70
2018-03-06T06:39:45.010Z,36.30
2018-03-06T06:40:48.986Z,37.00
2018-03-06T06:41:51.549Z,37.17
2018-03-06T06:42:54.066Z,37.45
2018-03-06T06:43:56.574Z,38.67
2018-03-06T06:44:59.816Z,38.70
2018-03-06T06:46:02.314Z,36.75
2018-03-06T06:47:04.811Z,36.60
2018-03-06T06:48:07.407Z,37.70
2018-03-06T06:49:10.658Z,37.33
2018-03-06T06:50:13.135Z,37.13
2018-03-06T06:51:15.657Z,37.78
2018-03-06T06:52:18.127Z,37.13
2018-03-06T06:53:21.546Z,37.65
2018-03-06T06:54:24.151Z,38.35
2018-03-06T06:55:26.644Z,39.05
2018-03-06T06:56:29.175Z,38.53
2018-03-06T06:57:31.634Z,37.22
2018-03-06T06:58:34.110Z,37.85
2018-03-06T06:59:36.605Z,39.03
2018-03-06T07:00:39.173Z,37.80
2018-03-06T07:01:41.641Z,36.95
2018-03-06T07:02:44.883Z,36.72
2018-03-06T07:03:48.940Z,37.55
2018-03-06T07:04:51.409Z,36.85
2018-03-06T07:05:53.904Z,37.72
2018-03-06T07:06:56.394Z,38.00
2018-03-06T07:07:58.871Z,37.85
2018-03-06T07:09:02.108Z,38.15
2018-03-06T07:10:05.345Z,36.17
2018-03-06T07:11:08.578Z,36.20
2018-03-06T07:12:11.066Z,39.50
2018-03-06T07:13:13.557Z,37.03
2018-03-06T07:14:16.815Z,39.05
2018-03-06T07:15:19.294Z,36.35
2018-03-06T07:16:23.405Z,39.70
2018-03-06T07:17:25.892Z,36.55
2018-03-06T07:18:29.118Z,36.03
2018-03-06T07:19:31.651Z,37.00
2018-03-06T07:20:34.122Z,37.03
2018-03-06T07:21:36.612Z,37.58
2018-03-06T07:22:39.880Z,36.72
2018-03-06T07:23:42.369Z,38.33
2018-03-06T07:24:44.847Z,37.88
2018-03-06T07:25:47.309Z,37.38
2018-03-06T07:26:49.801Z,37.67
2018-03-06T07:27:52.319Z,36.65
2018-03-06T07:28:54.803Z,36.17
2018-03-06T07:29:58.064Z,34.97
2018-03-06T07:31:01.308Z,35.28
2018-03-06T07:32:03.798Z,37.08
2018-03-06T07:33:06.256Z,36.17
2018-03-06T07:34:08.735Z,35.28
2018-03-06T07:35:11.242Z,36.15
2018-03-06T07:36:13.756Z,36.33
2018-03-06T07:37:16.955Z,36.75
2018-03-06T07:38:20.219Z,36.15
2018-03-06T07:39:23.469Z,37.60
2018-03-06T07:40:25.929Z,37.00
2018-03-06T07:41:28.431Z,35.58
2018-03-06T07:42:30.909Z,37.65
2018-03-06T07:43:33.420Z,36.58
2018-03-06T07:44:35.978Z,35.80
2018-03-06T07:45:39.214Z,37.67
2018-03-06T07:46:42.452Z,36.00
2018-03-06T07:47:45.743Z,36.35
2018-03-06T07:48:48.963Z,38.40
2018-03-06T07:49:51.444Z,36.80
2018-03-06T07:50:54.689Z,39.25
2018-03-06T07:51:57.169Z,36.95
2018-03-06T07:52:59.633Z,41.17
2018-03-06T07:54:02.198Z,40.40
2018-03-06T07:55:05.498Z,62.35
2018-03-06T07:56:07.977Z,41.42
2018-03-06T07:57:10.480Z,37.10
2018-03-06T07:58:14.780Z,39.72
2018-03-06T07:59:17.298Z,40.53
2018-03-06T08:00:19.848Z,37.55
2018-03-06T08:01:22.350Z,41.55
2018-03-06T08:02:24.814Z,39.25
2018-03-06T08:03:27.319Z,37.58
2018-03-06T08:04:29.822Z,35.40
2018-03-06T08:05:32.288Z,38.03
2018-03-06T08:06:34.774Z,40.70
2018-03-06T08:07:37.250Z,38.13
2018-03-06T08:08:39.768Z,46.25
2018-03-06T08:09:42.221Z,37.47
2018-03-06T08:10:45.457Z,38.47
2018-03-06T08:11:47.927Z,38.78
2018-03-06T08:12:50.391Z,35.83
2018-03-06T08:13:54.288Z,38.78
2018-03-06T08:14:57.437Z,39.88
2018-03-06T08:15:59.919Z,40.35
2018-03-06T08:17:02.441Z,43.65
2018-03-06T08:18:04.922Z,42.65
2018-03-06T08:19:07.479Z,41.03
2018-03-06T08:20:09.946Z,37.35
2018-03-06T08:21:13.174Z,39.00
2018-03-06T08:22:15.674Z,47.55
2018-03-06T08:23:18.634Z,37.08
2018-03-06T08:24:21.859Z,37.45
2018-03-06T08:25:25.839Z,37.65
2018-03-06T08:26:29.121Z,38.72
2018-03-06T08:27:31.597Z,37.80
2018-03-06T08:28:34.077Z,36.88
2018-03-06T08:29:36.583Z,38.53
2018-03-06T08:30:39.159Z,38.33
2018-03-06T08:31:41.680Z,37.60
2018-03-06T08:32:44.207Z,37.22
2018-03-06T08:33:46.681Z,39.20
2018-03-06T08:34:49.159Z,38.30
2018-03-06T08:35:51.616Z,37.92
2018-03-06T08:36:54.848Z,37.45
2018-03-06T08:37:58.083Z,36.25
2018-03-06T08:39:00.567Z,39.60
2018-03-06T08:40:03.047Z,38.30
2018-03-06T08:41:06.269Z,37.28
2018-03-06T08:42:08.735Z,38.63
2018-03-06T08:43:11.211Z,39.75
2018-03-06T08:44:13.787Z,37.20
2018-03-06T08:45:17.031Z,38.50
2018-03-06T08:46:19.516Z,37.58
2018-03-06T08:47:22.004Z,37.50
2018-03-06T08:48:24.504Z,37.83
2018-03-06T08:49:26.983Z,38.40
2018-03-06T08:50:29.468Z,37.10
2018-03-06T08:51:31.977Z,39.42
2018-03-06T08:52:35.206Z,38.20
2018-03-06T08:53:38.440Z,37.33
2018-03-06T08:54:41.695Z,37.83
2018-03-06T08:55:44.948Z,39.80
2018-03-06T08:56:47.421Z,38.83
2018-03-06T08:57:49.907Z,37.25
2018-03-06T08:58:52.424Z,35.58
2018-03-06T08:59:54.911Z,38.28
2018-03-06T09:00:57.396Z,37.80
2018-03-06T09:01:59.883Z,39.38
2018-03-06T09:03:03.155Z,40.40
2018-03-06T09:04:05.672Z,37.83
2018-03-06T09:05:08.173Z,37.40
2018-03-06T09:06:11.435Z,40.10
2018-03-06T09:07:13.906Z,45.08
2018-03-06T09:08:16.361Z,37.42
2018-03-06T09:09:19.600Z,42.13
2018-03-06T09:10:23.116Z,39.53
2018-03-06T09:11:25.614Z,36.03
2018-03-06T09:12:28.638Z,37.92
2018-03-06T09:13:31.199Z,35.85
2018-03-06T09:14:33.700Z,37.05
2018-03-06T09:15:36.988Z,36.80
2018-03-06T09:16:39.567Z,37.55
2018-03-06T09:17:42.775Z,38.88
2018-03-06T09:18:45.254Z,38.33
2018-03-06T09:19:47.716Z,39.00
2018-03-06T09:20:50.200Z,36.40
2018-03-06T09:21:52.674Z,39.28
2018-03-06T09:22:55.909Z,37.38
2018-03-06T09:23:58.372Z,38.10
2018-03-06T09:25:00.831Z,39.22
2018-03-06T09:26:03.297Z,38.88
2018-03-06T09:27:06.550Z,37.90
2018-03-06T09:28:09.799Z,38.08
2018-03-06T09:29:12.405Z,38.92
2018-03-06T09:30:16.366Z,38.08
2018-03-06T09:31:19.603Z,37.75
2018-03-06T09:32:22.831Z,36.08
2018-03-06T09:33:25.290Z,38.20
2018-03-06T09:34:27.783Z,38.28
2018-03-06T09:35:30.284Z,38.00
2018-03-06T09:36:32.767Z,38.10
2018-03-06T09:37:35.247Z,37.28
2018-03-06T09:38:37.718Z,38.92
2018-03-06T09:39:40.979Z,37.63
2018-03-06T09:40:43.458Z,38.45
2018-03-06T09:41:46.015Z,38.60
2018-03-06T09:42:49.247Z,37.55
2018-03-06T09:43:52.478Z,37.25
2018-03-06T09:44:55.766Z,39.08
2018-03-06T09:45:58.213Z,38.78
2018-03-06T09:47:00.687Z,38.15
2018-03-06T09:48:03.971Z,38.00
2018-03-06T09:49:06.459Z,39.38
2018-03-06T09:50:08.945Z,39.00
2018-03-06T09:51:11.423Z,41.65
2018-03-06T09:52:13.934Z,39.63
2018-03-06T09:53:16.443Z,40.20
2018-03-06T09:54:19.680Z,38.72
2018-03-06T09:55:22.154Z,38.25
2018-03-06T09:56:24.612Z,38.72
2018-03-06T09:57:27.073Z,39.60
2018-03-06T09:58:29.552Z,39.28
2018-03-06T09:59:32.053Z,38.58
2018-03-06T10:00:34.546Z,40.10
2018-03-06T10:01:37.757Z,39.83
2018-03-06T10:02:40.320Z,38.35
2018-03-06T10:03:43.564Z,39.80
2018-03-06T10:04:46.114Z,38.53
2018-03-06T10:05:48.598Z,38.90
2018-03-06T10:06:51.828Z,40.25
2018-03-06T10:07:55.066Z,38.90
2018-03-06T10:08:57.874Z,38.83
2018-03-06T10:10:00.384Z,39.65
2018-03-06T10:11:02.886Z,41.13
2018-03-06T10:12:05.418Z,40.17
2018-03-06T10:13:07.898Z,40.25
2018-03-06T10:14:10.396Z,40.30
2018-03-06T10:15:12.865Z,39.67
2018-03-06T10:16:16.103Z,40.83
2018-03-06T10:17:19.365Z,41.37
2018-03-06T10:18:21.848Z,41.83
2018-03-06T10:19:24.335Z,42.35
2018-03-06T10:20:27.554Z,40.88
2018-03-06T10:21:30.133Z,39.20
2018-03-06T10:22:32.670Z,39.50
2018-03-06T10:23:35.208Z,42.03
2018-03-06T10:24:37.720Z,43.33
2018-03-06T10:25:40.190Z,43.28
2018-03-06T10:26:42.671Z,40.88
2018-03-06T10:27:46.023Z,43.97
2018-03-06T10:28:48.579Z,44.70
2018-03-06T10:29:52.874Z,43.47
2018-03-06T10:30:55.445Z,41.37
2018-03-06T10:31:58.743Z,42.90
2018-03-06T10:33:01.285Z,42.88
2018-03-06T10:34:03.876Z,44.75
2018-03-06T10:35:06.439Z,43.25
2018-03-06T10:36:08.939Z,45.10
2018-03-06T10:37:11.453Z,46.53
2018-03-06T10:38:13.936Z,45.70
2018-03-06T10:39:16.524Z,46.47
2018-03-06T10:40:19.059Z,45.60
2018-03-06T10:41:21.541Z,45.05
2018-03-06T10:42:24.802Z,46.70
2018-03-06T10:43:27.356Z,46.85
2018-03-06T10:44:29.839Z,45.47
2018-03-06T10:45:33.151Z,46.00
2018-03-06T10:46:35.674Z,46.20
2018-03-06T10:47:38.944Z,45.15
2018-03-06T10:48:42.198Z,43.92
2018-03-06T10:49:45.475Z,44.75
2018-03-06T10:50:47.944Z,43.92
2018-03-06T10:51:50.447Z,43.67
2018-03-06T10:52:53.235Z,44.83
2018-03-06T10:53:55.714Z,47.10
2018-03-06T10:54:58.206Z,43.63
2018-03-06T10:56:00.712Z,44.88
2018-03-06T10:57:03.203Z,44.53
2018-03-06T10:58:05.673Z,46.67
2018-03-06T10:59:08.156Z,45.78
2018-03-06T11:00:11.419Z,45.33
2018-03-06T11:01:20.583Z,45.38
2018-03-06T11:02:29.426Z,45.80
2018-03-06T11:03:31.895Z,44.92
2018-03-06T11:04:34.386Z,47.03
2018-03-06T11:05:36.872Z,46.33
2018-03-06T11:06:39.347Z,46.58
2018-03-06T11:07:42.666Z,47.03
2018-03-06T11:08:45.144Z,47.13
2018-03-06T11:09:47.641Z,46.20
2018-03-06T11:10:50.901Z,48.00
2018-03-06T11:11:53.372Z,47.67
2018-03-06T11:12:55.838Z,52.05
2018-03-06T11:13:58.604Z,49.65
2018-03-06T11:15:01.119Z,47.62
2018-03-06T11:16:03.632Z,48.45
2018-03-06T11:17:06.879Z,49.35
2018-03-06T11:18:09.337Z,50.15
2018-03-06T11:19:11.801Z,49.88
2018-03-06T11:20:14.276Z,50.30
2018-03-06T11:21:16.764Z,51.17
2018-03-06T11:22:19.988Z,52.53
2018-03-06T11:23:22.455Z,51.97
2018-03-06T11:24:24.953Z,52.20
2018-03-06T11:25:28.321Z,49.05
2018-03-06T11:26:30.792Z,50.78
2018-03-06T11:27:33.350Z,50.85
2018-03-06T11:28:36.584Z,50.08
2018-03-06T11:29:39.821Z,51.45
2018-03-06T11:30:42.384Z,50.58
2018-03-06T11:31:45.338Z,50.22
2018-03-06T11:32:47.823Z,55.30
2018-03-06T11:33:51.094Z,53.35
2018-03-06T11:34:53.617Z,52.85
2018-03-06T11:35:56.099Z,52.40
2018-03-06T11:36:58.574Z,53.33
2018-03-06T11:38:01.039Z,54.38
2018-03-06T11:39:03.535Z,53.65
2018-03-06T11:40:06.064Z,52.58
2018-03-06T11:41:08.535Z,51.00
2018-03-06T11:42:11.803Z,52.53
2018-03-06T11:43:14.273Z,51.42
2018-03-06T11:44:16.751Z,50.75
2018-03-06T11:45:19.235Z,50.40
2018-03-06T11:46:21.804Z,49.55
2018-03-06T11:47:24.293Z,49.47
2018-03-06T11:48:26.757Z,50.20
2018-03-06T11:49:29.257Z,49.35
2018-03-06T11:50:32.535Z,47.95
2018-03-06T11:51:35.029Z,49.70
2018-03-06T11:52:38.333Z,49.30
2018-03-06T11:53:40.838Z,48.30
2018-03-06T11:54:44.065Z,47.42
2018-03-06T11:55:46.592Z,47.88
2018-03-06T11:56:49.073Z,48.10
2018-03-06T11:57:51.647Z,47.95
2018-03-06T11:58:54.153Z,46.97
2018-03-06T11:59:56.663Z,49.50
2018-03-06T12:00:59.940Z,49.40
2018-03-06T12:02:02.452Z,48.70
2018-03-06T12:03:04.936Z,46.92
2018-03-06T12:04:07.450Z,46.78
2018-03-06T12:05:09.952Z,47.42
2018-03-06T12:06:12.420Z,48.25
2018-03-06T12:07:14.915Z,47.28
2018-03-06T12:08:17.412Z,46.05
2018-03-06T12:09:19.894Z,49.15
2018-03-06T12:10:23.243Z,46.83
2018-03-06T12:11:25.734Z,49.45
2018-03-06T12:12:28.277Z,46.45
2018-03-06T12:13:31.567Z,49.38
2018-03-06T12:14:34.238Z,47.85
2018-03-06T12:15:36.744Z,48.87
2018-03-06T12:16:39.207Z,50.20
2018-03-06T12:17:41.735Z,48.10
2018-03-06T12:18:44.721Z,50.95
2018-03-06T12:19:50.058Z,48.53
2018-03-06T12:20:54.066Z,48.20
2018-03-06T12:21:56.546Z,49.78
2018-03-06T12:22:59.051Z,50.67
2018-03-06T12:24:01.556Z,48.78
2018-03-06T12:25:04.258Z,51.00
2018-03-06T12:26:06.856Z,50.55
2018-03-06T12:27:09.414Z,52.80
2018-03-06T12:28:12.645Z,52.50
2018-03-06T12:29:15.954Z,51.47
2018-03-06T12:30:18.477Z,51.92
2018-03-06T12:31:20.956Z,50.10
2018-03-06T12:32:24.321Z,53.08
2018-03-06T12:33:26.804Z,52.45
2018-03-06T12:34:30.136Z,51.17
2018-03-06T12:35:33.532Z,53.97
2018-03-06T12:36:36.839Z,52.70
2018-03-06T12:37:40.121Z,50.60
2018-03-06T12:38:42.629Z,51.08
2018-03-06T12:39:45.110Z,52.00
2018-03-06T12:40:47.587Z,50.05
2018-03-06T12:41:50.140Z,49.58
2018-03-06T12:42:52.663Z,50.42
2018-03-06T12:43:55.992Z,49.08
2018-03-06T12:44:58.723Z,50.40
2018-03-06T12:46:01.278Z,50.33
2018-03-06T12:47:03.795Z,51.70
2018-03-06T12:48:06.354Z,52.55
2018-03-06T12:49:08.824Z,53.75
2018-03-06T12:50:11.318Z,51.75
2018-03-06T12:51:14.580Z,52.05
2018-03-06T12:52:17.111Z,50.97
2018-03-06T12:53:19.568Z,49.90
2018-03-06T12:54:22.084Z,49.70
2018-03-06T12:55:24.569Z,49.47
2018-03-06T12:56:27.454Z,50.90
2018-03-06T12:57:30.095Z,51.08
2018-03-06T12:58:32.691Z,48.55
2018-03-06T12:59:35.153Z,51.70
2018-03-06T13:00:37.649Z,49.83
2018-03-06T13:01:40.246Z,51.42
2018-03-06T13:02:42.739Z,50.97
2018-03-06T13:03:45.250Z,51.60
2018-03-06T13:04:47.748Z,50.72
2018-03-06T13:05:50.251Z,51.88
2018-03-06T13:06:52.773Z,53.22
2018-03-06T13:07:56.141Z,52.30
2018-03-06T13:08:58.640Z,54.13
2018-03-06T13:10:01.194Z,51.80
2018-03-06T13:11:03.677Z,57.00
2018-03-06T13:12:06.929Z,53.08
2018-03-06T13:13:10.178Z,53.78
2018-03-06T13:14:12.708Z,52.75
2018-03-06T13:15:15.234Z,52.70
2018-03-06T13:16:17.712Z,54.08
2018-03-06T13:17:21.128Z,52.67
2018-03-06T13:18:23.670Z,57.75
2018-03-06T13:19:26.153Z,56.70
2018-03-06T13:20:28.638Z,59.28
2018-03-06T13:21:31.221Z,61.95
2018-03-06T13:22:33.707Z,63.05
2018-03-06T13:23:36.209Z,61.80
2018-03-06T13:24:38.704Z,63.97
2018-03-06T13:25:41.220Z,65.25
2018-03-06T13:26:43.685Z,64.87
2018-03-06T13:27:46.932Z,63.10
2018-03-06T13:28:49.420Z,63.45